<?xml version="1.0" encoding="UTF-8" standalone="no" ?>
<gpx xmlns="http://www.topografix.com/GPX/1/1" xmlns:xsi="http://www.w3.org/2001/XMLSchema-instance" xsi:schemaLocation="http://www.topografix.com/GPX/1/1 http://www.topografix.com/GPX/1/1/gpx.xsd" version="1.1" creator="VisuGPX - https://www.visugpx.com">
  <metadata>
    <name>Joncas - Grotte des Fées - Bartas sur les Crêtes - Mumu Championne !</name>
    <desc><![CDATA[Sacré vent ce jour là !]]></desc>
  </metadata>
  <trk>
    <name><![CDATA[mumu_fee]]></name>
    <trkseg>
      <trkpt lat="43.69607" lon="3.5062">
        <ele>151</ele>
        <time>2016-02-29T10:19:10Z</time>
      </trkpt>
      <trkpt lat="43.69638" lon="3.5059">
        <ele>151</ele>
        <time>2016-02-29T10:20:17Z</time>
      </trkpt>
      <trkpt lat="43.69647" lon="3.50567">
        <ele>153</ele>
        <time>2016-02-29T10:20:30Z</time>
      </trkpt>
      <trkpt lat="43.69662" lon="3.50562">
        <ele>153</ele>
        <time>2016-02-29T10:20:42Z</time>
      </trkpt>
      <trkpt lat="43.69669" lon="3.50539">
        <ele>153</ele>
        <time>2016-02-29T10:21:02Z</time>
      </trkpt>
      <trkpt lat="43.69725" lon="3.50552">
        <ele>152</ele>
        <time>2016-02-29T10:21:54Z</time>
      </trkpt>
      <trkpt lat="43.69819" lon="3.50579">
        <ele>149</ele>
        <time>2016-02-29T10:23:48Z</time>
      </trkpt>
      <trkpt lat="43.69835" lon="3.50579">
        <ele>147</ele>
        <time>2016-02-29T10:24:00Z</time>
      </trkpt>
      <trkpt lat="43.69876" lon="3.50564">
        <ele>144</ele>
        <time>2016-02-29T10:24:31Z</time>
      </trkpt>
      <trkpt lat="43.69898" lon="3.50561">
        <ele>142</ele>
        <time>2016-02-29T10:24:47Z</time>
      </trkpt>
      <trkpt lat="43.69917" lon="3.50564">
        <ele>137</ele>
        <time>2016-02-29T10:25:02Z</time>
      </trkpt>
      <trkpt lat="43.69931" lon="3.50575">
        <ele>137</ele>
        <time>2016-02-29T10:25:17Z</time>
      </trkpt>
      <trkpt lat="43.69955" lon="3.50582">
        <ele>136</ele>
        <time>2016-02-29T10:25:35Z</time>
      </trkpt>
      <trkpt lat="43.70026" lon="3.50617">
        <ele>135</ele>
        <time>2016-02-29T10:26:31Z</time>
      </trkpt>
      <trkpt lat="43.70075" lon="3.50653">
        <ele>138</ele>
        <time>2016-02-29T10:27:17Z</time>
      </trkpt>
      <trkpt lat="43.70095" lon="3.50661">
        <ele>141</ele>
        <time>2016-02-29T10:27:32Z</time>
      </trkpt>
      <trkpt lat="43.70116" lon="3.50675">
        <ele>143</ele>
        <time>2016-02-29T10:27:50Z</time>
      </trkpt>
      <trkpt lat="43.70138" lon="3.50682">
        <ele>144</ele>
        <time>2016-02-29T10:28:07Z</time>
      </trkpt>
      <trkpt lat="43.70147" lon="3.50693">
        <ele>144</ele>
        <time>2016-02-29T10:28:18Z</time>
      </trkpt>
      <trkpt lat="43.70219" lon="3.5073">
        <ele>151</ele>
        <time>2016-02-29T10:29:15Z</time>
      </trkpt>
      <trkpt lat="43.70253" lon="3.50762">
        <ele>155</ele>
        <time>2016-02-29T10:29:55Z</time>
      </trkpt>
      <trkpt lat="43.70267" lon="3.50759">
        <ele>156</ele>
        <time>2016-02-29T10:30:05Z</time>
      </trkpt>
      <trkpt lat="43.70265" lon="3.50703">
        <ele>155</ele>
        <time>2016-02-29T10:30:47Z</time>
      </trkpt>
      <trkpt lat="43.70266" lon="3.5071">
        <ele>156</ele>
        <time>2016-02-29T10:31:28Z</time>
      </trkpt>
      <trkpt lat="43.70263" lon="3.50727">
        <ele>156</ele>
        <time>2016-02-29T10:31:38Z</time>
      </trkpt>
      <trkpt lat="43.70268" lon="3.50752">
        <ele>156</ele>
        <time>2016-02-29T10:31:53Z</time>
      </trkpt>
      <trkpt lat="43.70278" lon="3.50762">
        <ele>156</ele>
        <time>2016-02-29T10:32:03Z</time>
      </trkpt>
      <trkpt lat="43.70299" lon="3.50762">
        <ele>157</ele>
        <time>2016-02-29T10:32:21Z</time>
      </trkpt>
      <trkpt lat="43.70318" lon="3.50773">
        <ele>158</ele>
        <time>2016-02-29T10:32:37Z</time>
      </trkpt>
      <trkpt lat="43.70338" lon="3.50773">
        <ele>164</ele>
        <time>2016-02-29T10:32:54Z</time>
      </trkpt>
      <trkpt lat="43.70372" lon="3.50781">
        <ele>166</ele>
        <time>2016-02-29T10:33:31Z</time>
      </trkpt>
      <trkpt lat="43.70414" lon="3.50774">
        <ele>168</ele>
        <time>2016-02-29T10:34:07Z</time>
      </trkpt>
      <trkpt lat="43.70441" lon="3.50782">
        <ele>179</ele>
        <time>2016-02-29T10:34:44Z</time>
      </trkpt>
      <trkpt lat="43.70459" lon="3.5078">
        <ele>180</ele>
        <time>2016-02-29T10:34:58Z</time>
      </trkpt>
      <trkpt lat="43.70507" lon="3.50753">
        <ele>188</ele>
        <time>2016-02-29T10:35:43Z</time>
      </trkpt>
      <trkpt lat="43.70522" lon="3.50748">
        <ele>191</ele>
        <time>2016-02-29T10:35:57Z</time>
      </trkpt>
      <trkpt lat="43.70574" lon="3.50681">
        <ele>202</ele>
        <time>2016-02-29T10:37:24Z</time>
      </trkpt>
      <trkpt lat="43.70566" lon="3.50663">
        <ele>203</ele>
        <time>2016-02-29T10:39:04Z</time>
      </trkpt>
      <trkpt lat="43.70578" lon="3.50657">
        <ele>205</ele>
        <time>2016-02-29T10:40:07Z</time>
      </trkpt>
      <trkpt lat="43.70582" lon="3.50637">
        <ele>204</ele>
        <time>2016-02-29T10:40:53Z</time>
      </trkpt>
      <trkpt lat="43.70574" lon="3.50615">
        <ele>204</ele>
        <time>2016-02-29T10:41:29Z</time>
      </trkpt>
      <trkpt lat="43.70581" lon="3.50587">
        <ele>210</ele>
        <time>2016-02-29T10:41:47Z</time>
      </trkpt>
      <trkpt lat="43.70591" lon="3.50578">
        <ele>215</ele>
        <time>2016-02-29T10:42:03Z</time>
      </trkpt>
      <trkpt lat="43.70603" lon="3.5055">
        <ele>220</ele>
        <time>2016-02-29T10:42:31Z</time>
      </trkpt>
      <trkpt lat="43.7061" lon="3.5052">
        <ele>220</ele>
        <time>2016-02-29T10:42:48Z</time>
      </trkpt>
      <trkpt lat="43.70635" lon="3.50437">
        <ele>219</ele>
        <time>2016-02-29T10:43:35Z</time>
      </trkpt>
      <trkpt lat="43.70638" lon="3.50419">
        <ele>220</ele>
        <time>2016-02-29T10:43:45Z</time>
      </trkpt>
      <trkpt lat="43.70651" lon="3.50422">
        <ele>222</ele>
        <time>2016-02-29T10:44:06Z</time>
      </trkpt>
      <trkpt lat="43.70664" lon="3.50411">
        <ele>224</ele>
        <time>2016-02-29T10:45:02Z</time>
      </trkpt>
      <trkpt lat="43.70676" lon="3.50422">
        <ele>233</ele>
        <time>2016-02-29T10:46:30Z</time>
      </trkpt>
      <trkpt lat="43.7069" lon="3.50325">
        <ele>238</ele>
        <time>2016-02-29T10:52:32Z</time>
      </trkpt>
      <trkpt lat="43.70718" lon="3.50272">
        <ele>244</ele>
        <time>2016-02-29T10:54:21Z</time>
      </trkpt>
      <trkpt lat="43.70727" lon="3.50233">
        <ele>246</ele>
        <time>2016-02-29T10:55:44Z</time>
      </trkpt>
      <trkpt lat="43.70745" lon="3.50239">
        <ele>251</ele>
        <time>2016-02-29T10:56:14Z</time>
      </trkpt>
      <trkpt lat="43.70764" lon="3.5027">
        <ele>266</ele>
        <time>2016-02-29T10:57:04Z</time>
      </trkpt>
      <trkpt lat="43.70789" lon="3.50289">
        <ele>271</ele>
        <time>2016-02-29T10:57:59Z</time>
      </trkpt>
      <trkpt lat="43.70805" lon="3.50287">
        <ele>273</ele>
        <time>2016-02-29T10:58:39Z</time>
      </trkpt>
      <trkpt lat="43.7082" lon="3.50291">
        <ele>275</ele>
        <time>2016-02-29T10:59:01Z</time>
      </trkpt>
      <trkpt lat="43.70837" lon="3.503">
        <ele>289</ele>
        <time>2016-02-29T10:59:25Z</time>
      </trkpt>
      <trkpt lat="43.70847" lon="3.50309">
        <ele>289</ele>
        <time>2016-02-29T10:59:45Z</time>
      </trkpt>
      <trkpt lat="43.70861" lon="3.50307">
        <ele>291</ele>
        <time>2016-02-29T11:00:26Z</time>
      </trkpt>
      <trkpt lat="43.70871" lon="3.50317">
        <ele>291</ele>
        <time>2016-02-29T11:02:21Z</time>
      </trkpt>
      <trkpt lat="43.70888" lon="3.5032">
        <ele>294</ele>
        <time>2016-02-29T11:02:50Z</time>
      </trkpt>
      <trkpt lat="43.70905" lon="3.50335">
        <ele>297</ele>
        <time>2016-02-29T11:03:20Z</time>
      </trkpt>
      <trkpt lat="43.70908" lon="3.50356">
        <ele>295</ele>
        <time>2016-02-29T11:04:27Z</time>
      </trkpt>
      <trkpt lat="43.70922" lon="3.50387">
        <ele>298</ele>
        <time>2016-02-29T11:04:51Z</time>
      </trkpt>
      <trkpt lat="43.7096" lon="3.50357">
        <ele>296</ele>
        <time>2016-02-29T11:06:53Z</time>
      </trkpt>
      <trkpt lat="43.70977" lon="3.50352">
        <ele>295</ele>
        <time>2016-02-29T11:07:10Z</time>
      </trkpt>
      <trkpt lat="43.71031" lon="3.50399">
        <ele>287</ele>
        <time>2016-02-29T11:08:13Z</time>
      </trkpt>
      <trkpt lat="43.71041" lon="3.50413">
        <ele>286</ele>
        <time>2016-02-29T11:08:26Z</time>
      </trkpt>
      <trkpt lat="43.71064" lon="3.50459">
        <ele>288</ele>
        <time>2016-02-29T11:09:02Z</time>
      </trkpt>
      <trkpt lat="43.71076" lon="3.50476">
        <ele>288</ele>
        <time>2016-02-29T11:09:58Z</time>
      </trkpt>
      <trkpt lat="43.71092" lon="3.50464">
        <ele>277</ele>
        <time>2016-02-29T11:10:16Z</time>
      </trkpt>
      <trkpt lat="43.711" lon="3.50443">
        <ele>276</ele>
        <time>2016-02-29T11:10:37Z</time>
      </trkpt>
      <trkpt lat="43.71129" lon="3.50386">
        <ele>269</ele>
        <time>2016-02-29T11:11:16Z</time>
      </trkpt>
      <trkpt lat="43.71138" lon="3.50377">
        <ele>268</ele>
        <time>2016-02-29T11:11:25Z</time>
      </trkpt>
      <trkpt lat="43.71169" lon="3.50352">
        <ele>259</ele>
        <time>2016-02-29T11:11:53Z</time>
      </trkpt>
      <trkpt lat="43.71188" lon="3.5036">
        <ele>259</ele>
        <time>2016-02-29T11:12:10Z</time>
      </trkpt>
      <trkpt lat="43.71202" lon="3.50373">
        <ele>260</ele>
        <time>2016-02-29T11:12:24Z</time>
      </trkpt>
      <trkpt lat="43.71223" lon="3.50402">
        <ele>260</ele>
        <time>2016-02-29T11:12:49Z</time>
      </trkpt>
      <trkpt lat="43.71228" lon="3.50418">
        <ele>263</ele>
        <time>2016-02-29T11:13:00Z</time>
      </trkpt>
      <trkpt lat="43.7123" lon="3.50501">
        <ele>269</ele>
        <time>2016-02-29T11:13:50Z</time>
      </trkpt>
      <trkpt lat="43.71256" lon="3.50518">
        <ele>268</ele>
        <time>2016-02-29T11:14:15Z</time>
      </trkpt>
      <trkpt lat="43.71334" lon="3.50471">
        <ele>265</ele>
        <time>2016-02-29T11:15:26Z</time>
      </trkpt>
      <trkpt lat="43.71364" lon="3.5044">
        <ele>264</ele>
        <time>2016-02-29T11:15:52Z</time>
      </trkpt>
      <trkpt lat="43.71372" lon="3.50424">
        <ele>264</ele>
        <time>2016-02-29T11:16:02Z</time>
      </trkpt>
      <trkpt lat="43.71382" lon="3.50413">
        <ele>262</ele>
        <time>2016-02-29T11:16:13Z</time>
      </trkpt>
      <trkpt lat="43.71434" lon="3.50365">
        <ele>264</ele>
        <time>2016-02-29T11:17:06Z</time>
      </trkpt>
      <trkpt lat="43.7143" lon="3.50333">
        <ele>263</ele>
        <time>2016-02-29T11:17:22Z</time>
      </trkpt>
      <trkpt lat="43.71439" lon="3.50298">
        <ele>263</ele>
        <time>2016-02-29T11:17:46Z</time>
      </trkpt>
      <trkpt lat="43.71443" lon="3.50257">
        <ele>263</ele>
        <time>2016-02-29T11:18:12Z</time>
      </trkpt>
      <trkpt lat="43.71454" lon="3.50219">
        <ele>259</ele>
        <time>2016-02-29T11:18:37Z</time>
      </trkpt>
      <trkpt lat="43.71456" lon="3.50189">
        <ele>258</ele>
        <time>2016-02-29T11:18:55Z</time>
      </trkpt>
      <trkpt lat="43.71453" lon="3.50168">
        <ele>257</ele>
        <time>2016-02-29T11:19:35Z</time>
      </trkpt>
      <trkpt lat="43.71441" lon="3.50146">
        <ele>253</ele>
        <time>2016-02-29T11:20:44Z</time>
      </trkpt>
      <trkpt lat="43.71441" lon="3.50183">
        <ele>258</ele>
        <time>2016-02-29T11:22:24Z</time>
      </trkpt>
      <trkpt lat="43.71476" lon="3.50107">
        <ele>249</ele>
        <time>2016-02-29T11:29:37Z</time>
      </trkpt>
      <trkpt lat="43.71467" lon="3.50118">
        <ele>250</ele>
        <time>2016-02-29T11:30:02Z</time>
      </trkpt>
      <trkpt lat="43.7147" lon="3.50143">
        <ele>251</ele>
        <time>2016-02-29T11:30:52Z</time>
      </trkpt>
      <trkpt lat="43.7148" lon="3.50152">
        <ele>251</ele>
        <time>2016-02-29T11:31:11Z</time>
      </trkpt>
      <trkpt lat="43.71496" lon="3.50153">
        <ele>250</ele>
        <time>2016-02-29T11:31:49Z</time>
      </trkpt>
      <trkpt lat="43.71522" lon="3.50174">
        <ele>253</ele>
        <time>2016-02-29T11:32:37Z</time>
      </trkpt>
      <trkpt lat="43.71538" lon="3.50174">
        <ele>253</ele>
        <time>2016-02-29T11:32:53Z</time>
      </trkpt>
      <trkpt lat="43.71553" lon="3.50184">
        <ele>254</ele>
        <time>2016-02-29T11:33:12Z</time>
      </trkpt>
      <trkpt lat="43.7157" lon="3.50182">
        <ele>252</ele>
        <time>2016-02-29T11:33:42Z</time>
      </trkpt>
      <trkpt lat="43.7159" lon="3.50197">
        <ele>254</ele>
        <time>2016-02-29T11:34:13Z</time>
      </trkpt>
      <trkpt lat="43.7166" lon="3.50215">
        <ele>257</ele>
        <time>2016-02-29T11:35:31Z</time>
      </trkpt>
      <trkpt lat="43.7167" lon="3.50223">
        <ele>257</ele>
        <time>2016-02-29T11:35:44Z</time>
      </trkpt>
      <trkpt lat="43.71681" lon="3.50216">
        <ele>256</ele>
        <time>2016-02-29T11:35:59Z</time>
      </trkpt>
      <trkpt lat="43.71711" lon="3.50242">
        <ele>256</ele>
        <time>2016-02-29T11:36:38Z</time>
      </trkpt>
      <trkpt lat="43.71729" lon="3.50236">
        <ele>255</ele>
        <time>2016-02-29T11:36:54Z</time>
      </trkpt>
      <trkpt lat="43.71756" lon="3.50224">
        <ele>256</ele>
        <time>2016-02-29T11:37:28Z</time>
      </trkpt>
      <trkpt lat="43.71769" lon="3.50214">
        <ele>256</ele>
        <time>2016-02-29T11:37:44Z</time>
      </trkpt>
      <trkpt lat="43.71742" lon="3.50192">
        <ele>254</ele>
        <time>2016-02-29T11:38:36Z</time>
      </trkpt>
      <trkpt lat="43.71765" lon="3.50207">
        <ele>255</ele>
        <time>2016-02-29T11:40:20Z</time>
      </trkpt>
      <trkpt lat="43.71787" lon="3.50209">
        <ele>256</ele>
        <time>2016-02-29T11:40:41Z</time>
      </trkpt>
      <trkpt lat="43.71803" lon="3.50196">
        <ele>256</ele>
        <time>2016-02-29T11:40:55Z</time>
      </trkpt>
      <trkpt lat="43.71823" lon="3.50167">
        <ele>255</ele>
        <time>2016-02-29T11:41:37Z</time>
      </trkpt>
      <trkpt lat="43.71846" lon="3.50145">
        <ele>262</ele>
        <time>2016-02-29T11:42:03Z</time>
      </trkpt>
      <trkpt lat="43.71865" lon="3.50115">
        <ele>265</ele>
        <time>2016-02-29T11:42:27Z</time>
      </trkpt>
      <trkpt lat="43.71881" lon="3.50105">
        <ele>266</ele>
        <time>2016-02-29T11:42:43Z</time>
      </trkpt>
      <trkpt lat="43.71899" lon="3.50104">
        <ele>266</ele>
        <time>2016-02-29T11:42:56Z</time>
      </trkpt>
      <trkpt lat="43.71913" lon="3.5009">
        <ele>266</ele>
        <time>2016-02-29T11:43:09Z</time>
      </trkpt>
      <trkpt lat="43.7192" lon="3.50063">
        <ele>270</ele>
        <time>2016-02-29T11:43:27Z</time>
      </trkpt>
      <trkpt lat="43.71919" lon="3.50041">
        <ele>271</ele>
        <time>2016-02-29T11:43:41Z</time>
      </trkpt>
      <trkpt lat="43.71926" lon="3.50025">
        <ele>271</ele>
        <time>2016-02-29T11:43:53Z</time>
      </trkpt>
      <trkpt lat="43.71944" lon="3.49968">
        <ele>274</ele>
        <time>2016-02-29T11:44:33Z</time>
      </trkpt>
      <trkpt lat="43.71959" lon="3.49941">
        <ele>275</ele>
        <time>2016-02-29T11:44:58Z</time>
      </trkpt>
      <trkpt lat="43.71973" lon="3.49934">
        <ele>274</ele>
        <time>2016-02-29T11:45:09Z</time>
      </trkpt>
      <trkpt lat="43.72008" lon="3.49945">
        <ele>273</ele>
        <time>2016-02-29T11:45:44Z</time>
      </trkpt>
      <trkpt lat="43.72055" lon="3.49979">
        <ele>272</ele>
        <time>2016-02-29T11:46:29Z</time>
      </trkpt>
      <trkpt lat="43.72085" lon="3.49966">
        <ele>277</ele>
        <time>2016-02-29T11:46:57Z</time>
      </trkpt>
      <trkpt lat="43.72105" lon="3.49964">
        <ele>278</ele>
        <time>2016-02-29T11:47:14Z</time>
      </trkpt>
      <trkpt lat="43.7212" lon="3.49981">
        <ele>278</ele>
        <time>2016-02-29T11:47:29Z</time>
      </trkpt>
      <trkpt lat="43.72144" lon="3.50039">
        <ele>276</ele>
        <time>2016-02-29T11:48:11Z</time>
      </trkpt>
      <trkpt lat="43.72162" lon="3.50072">
        <ele>274</ele>
        <time>2016-02-29T11:48:37Z</time>
      </trkpt>
      <trkpt lat="43.72168" lon="3.5009">
        <ele>272</ele>
        <time>2016-02-29T11:48:56Z</time>
      </trkpt>
      <trkpt lat="43.72191" lon="3.50136">
        <ele>274</ele>
        <time>2016-02-29T11:50:04Z</time>
      </trkpt>
      <trkpt lat="43.72213" lon="3.50151">
        <ele>274</ele>
        <time>2016-02-29T11:50:27Z</time>
      </trkpt>
      <trkpt lat="43.72225" lon="3.5017">
        <ele>274</ele>
        <time>2016-02-29T11:50:45Z</time>
      </trkpt>
      <trkpt lat="43.72259" lon="3.50177">
        <ele>273</ele>
        <time>2016-02-29T11:51:23Z</time>
      </trkpt>
      <trkpt lat="43.72295" lon="3.50194">
        <ele>276</ele>
        <time>2016-02-29T11:51:55Z</time>
      </trkpt>
      <trkpt lat="43.72349" lon="3.50206">
        <ele>282</ele>
        <time>2016-02-29T11:52:40Z</time>
      </trkpt>
      <trkpt lat="43.72387" lon="3.50223">
        <ele>283</ele>
        <time>2016-02-29T11:53:14Z</time>
      </trkpt>
      <trkpt lat="43.72418" lon="3.50243">
        <ele>284</ele>
        <time>2016-02-29T11:53:45Z</time>
      </trkpt>
      <trkpt lat="43.72469" lon="3.50236">
        <ele>290</ele>
        <time>2016-02-29T11:54:36Z</time>
      </trkpt>
      <trkpt lat="43.72481" lon="3.50229">
        <ele>291</ele>
        <time>2016-02-29T11:54:49Z</time>
      </trkpt>
      <trkpt lat="43.725" lon="3.50234">
        <ele>296</ele>
        <time>2016-02-29T11:55:10Z</time>
      </trkpt>
      <trkpt lat="43.72516" lon="3.50231">
        <ele>299</ele>
        <time>2016-02-29T11:55:38Z</time>
      </trkpt>
      <trkpt lat="43.72534" lon="3.5026">
        <ele>296</ele>
        <time>2016-02-29T11:58:01Z</time>
      </trkpt>
      <trkpt lat="43.72537" lon="3.50281">
        <ele>297</ele>
        <time>2016-02-29T11:58:33Z</time>
      </trkpt>
      <trkpt lat="43.72544" lon="3.50299">
        <ele>298</ele>
        <time>2016-02-29T11:58:57Z</time>
      </trkpt>
      <trkpt lat="43.72565" lon="3.50323">
        <ele>297</ele>
        <time>2016-02-29T11:59:27Z</time>
      </trkpt>
      <trkpt lat="43.72599" lon="3.50352">
        <ele>299</ele>
        <time>2016-02-29T12:00:39Z</time>
      </trkpt>
      <trkpt lat="43.72631" lon="3.50365">
        <ele>302</ele>
        <time>2016-02-29T12:02:34Z</time>
      </trkpt>
      <trkpt lat="43.72639" lon="3.504">
        <ele>302</ele>
        <time>2016-02-29T12:04:15Z</time>
      </trkpt>
      <trkpt lat="43.72656" lon="3.50407">
        <ele>301</ele>
        <time>2016-02-29T12:04:45Z</time>
      </trkpt>
      <trkpt lat="43.72678" lon="3.50435">
        <ele>303</ele>
        <time>2016-02-29T12:06:26Z</time>
      </trkpt>
      <trkpt lat="43.72663" lon="3.50421">
        <ele>301</ele>
        <time>2016-02-29T12:07:03Z</time>
      </trkpt>
      <trkpt lat="43.72655" lon="3.50408">
        <ele>301</ele>
        <time>2016-02-29T12:07:39Z</time>
      </trkpt>
      <trkpt lat="43.72645" lon="3.50399">
        <ele>302</ele>
        <time>2016-02-29T12:08:53Z</time>
      </trkpt>
      <trkpt lat="43.72638" lon="3.50387">
        <ele>302</ele>
        <time>2016-02-29T12:09:08Z</time>
      </trkpt>
      <trkpt lat="43.72633" lon="3.50371">
        <ele>302</ele>
        <time>2016-02-29T12:09:22Z</time>
      </trkpt>
      <trkpt lat="43.72619" lon="3.50368">
        <ele>302</ele>
        <time>2016-02-29T12:10:00Z</time>
      </trkpt>
      <trkpt lat="43.72628" lon="3.50337">
        <ele>303</ele>
        <time>2016-02-29T12:11:02Z</time>
      </trkpt>
      <trkpt lat="43.72625" lon="3.50315">
        <ele>308</ele>
        <time>2016-02-29T12:14:26Z</time>
      </trkpt>
      <trkpt lat="43.72625" lon="3.50315">
        <ele>308</ele>
        <time>2016-02-29T12:14:49Z</time>
      </trkpt>
      <trkpt lat="43.72625" lon="3.50315">
        <ele>308</ele>
        <time>2016-02-29T12:35:53Z</time>
      </trkpt>
      <trkpt lat="43.72622" lon="3.50311">
        <ele>308</ele>
        <time>2016-02-29T12:36:06Z</time>
      </trkpt>
      <trkpt lat="43.72611" lon="3.50332">
        <ele>305</ele>
        <time>2016-02-29T12:39:51Z</time>
      </trkpt>
      <trkpt lat="43.72605" lon="3.50351">
        <ele>300</ele>
        <time>2016-02-29T12:40:16Z</time>
      </trkpt>
      <trkpt lat="43.72629" lon="3.50372">
        <ele>302</ele>
        <time>2016-02-29T12:40:56Z</time>
      </trkpt>
      <trkpt lat="43.72626" lon="3.50389">
        <ele>302</ele>
        <time>2016-02-29T12:43:10Z</time>
      </trkpt>
      <trkpt lat="43.72632" lon="3.50372">
        <ele>302</ele>
        <time>2016-02-29T12:44:47Z</time>
      </trkpt>
      <trkpt lat="43.72604" lon="3.50375">
        <ele>301</ele>
        <time>2016-02-29T12:50:27Z</time>
      </trkpt>
      <trkpt lat="43.72625" lon="3.5037">
        <ele>302</ele>
        <time>2016-02-29T12:51:57Z</time>
      </trkpt>
      <trkpt lat="43.72606" lon="3.50387">
        <ele>302</ele>
        <time>2016-02-29T12:54:08Z</time>
      </trkpt>
      <trkpt lat="43.72618" lon="3.50378">
        <ele>302</ele>
        <time>2016-02-29T12:54:41Z</time>
      </trkpt>
      <trkpt lat="43.72627" lon="3.50363">
        <ele>302</ele>
        <time>2016-02-29T12:55:08Z</time>
      </trkpt>
      <trkpt lat="43.72649" lon="3.5034">
        <ele>306</ele>
        <time>2016-02-29T13:00:37Z</time>
      </trkpt>
      <trkpt lat="43.72626" lon="3.50362">
        <ele>302</ele>
        <time>2016-02-29T13:01:14Z</time>
      </trkpt>
      <trkpt lat="43.72627" lon="3.50365">
        <ele>302</ele>
        <time>2016-02-29T13:04:45Z</time>
      </trkpt>
      <trkpt lat="43.7262" lon="3.5038">
        <ele>302</ele>
        <time>2016-02-29T13:08:44Z</time>
      </trkpt>
      <trkpt lat="43.72602" lon="3.50403">
        <ele>302</ele>
        <time>2016-02-29T13:11:09Z</time>
      </trkpt>
      <trkpt lat="43.72611" lon="3.50387">
        <ele>302</ele>
        <time>2016-02-29T13:11:36Z</time>
      </trkpt>
      <trkpt lat="43.72587" lon="3.50422">
        <ele>305</ele>
        <time>2016-02-29T13:12:14Z</time>
      </trkpt>
      <trkpt lat="43.72628" lon="3.50368">
        <ele>302</ele>
        <time>2016-02-29T13:13:01Z</time>
      </trkpt>
      <trkpt lat="43.72611" lon="3.50394">
        <ele>302</ele>
        <time>2016-02-29T13:13:37Z</time>
      </trkpt>
      <trkpt lat="43.72626" lon="3.50377">
        <ele>302</ele>
        <time>2016-02-29T13:13:39Z</time>
      </trkpt>
      <trkpt lat="43.726" lon="3.50395">
        <ele>302</ele>
        <time>2016-02-29T13:13:58Z</time>
      </trkpt>
      <trkpt lat="43.72586" lon="3.50415">
        <ele>303</ele>
        <time>2016-02-29T13:14:04Z</time>
      </trkpt>
      <trkpt lat="43.7259" lon="3.50419">
        <ele>305</ele>
        <time>2016-02-29T13:14:15Z</time>
      </trkpt>
      <trkpt lat="43.72618" lon="3.50372">
        <ele>302</ele>
        <time>2016-02-29T13:14:22Z</time>
      </trkpt>
      <trkpt lat="43.72636" lon="3.5036">
        <ele>303</ele>
        <time>2016-02-29T13:14:47Z</time>
      </trkpt>
      <trkpt lat="43.72616" lon="3.50387">
        <ele>302</ele>
        <time>2016-02-29T13:16:38Z</time>
      </trkpt>
      <trkpt lat="43.72607" lon="3.50396">
        <ele>302</ele>
        <time>2016-02-29T13:17:22Z</time>
      </trkpt>
      <trkpt lat="43.72618" lon="3.50377">
        <ele>302</ele>
        <time>2016-02-29T13:17:49Z</time>
      </trkpt>
      <trkpt lat="43.72613" lon="3.50361">
        <ele>301</ele>
        <time>2016-02-29T13:18:36Z</time>
      </trkpt>
      <trkpt lat="43.72602" lon="3.50352">
        <ele>300</ele>
        <time>2016-02-29T13:18:54Z</time>
      </trkpt>
      <trkpt lat="43.7259" lon="3.50358">
        <ele>299</ele>
        <time>2016-02-29T13:19:19Z</time>
      </trkpt>
      <trkpt lat="43.72575" lon="3.50387">
        <ele>303</ele>
        <time>2016-02-29T13:20:28Z</time>
      </trkpt>
      <trkpt lat="43.72564" lon="3.50394">
        <ele>304</ele>
        <time>2016-02-29T13:21:36Z</time>
      </trkpt>
      <trkpt lat="43.72556" lon="3.50409">
        <ele>305</ele>
        <time>2016-02-29T13:22:42Z</time>
      </trkpt>
      <trkpt lat="43.72552" lon="3.50425">
        <ele>318</ele>
        <time>2016-02-29T13:24:19Z</time>
      </trkpt>
      <trkpt lat="43.72585" lon="3.50422">
        <ele>305</ele>
        <time>2016-02-29T13:25:17Z</time>
      </trkpt>
      <trkpt lat="43.72597" lon="3.50431">
        <ele>307</ele>
        <time>2016-02-29T13:26:11Z</time>
      </trkpt>
      <trkpt lat="43.72597" lon="3.50453">
        <ele>311</ele>
        <time>2016-02-29T13:27:27Z</time>
      </trkpt>
      <trkpt lat="43.72601" lon="3.5047">
        <ele>314</ele>
        <time>2016-02-29T13:28:17Z</time>
      </trkpt>
      <trkpt lat="43.72595" lon="3.50486">
        <ele>319</ele>
        <time>2016-02-29T13:29:31Z</time>
      </trkpt>
      <trkpt lat="43.72603" lon="3.50503">
        <ele>328</ele>
        <time>2016-02-29T13:30:28Z</time>
      </trkpt>
      <trkpt lat="43.72589" lon="3.50509">
        <ele>330</ele>
        <time>2016-02-29T13:31:23Z</time>
      </trkpt>
      <trkpt lat="43.72596" lon="3.50545">
        <ele>333</ele>
        <time>2016-02-29T13:33:13Z</time>
      </trkpt>
      <trkpt lat="43.72594" lon="3.50565">
        <ele>338</ele>
        <time>2016-02-29T13:35:50Z</time>
      </trkpt>
      <trkpt lat="43.7258" lon="3.50562">
        <ele>349</ele>
        <time>2016-02-29T13:38:40Z</time>
      </trkpt>
      <trkpt lat="43.72572" lon="3.50573">
        <ele>350</ele>
        <time>2016-02-29T13:39:50Z</time>
      </trkpt>
      <trkpt lat="43.72566" lon="3.50588">
        <ele>361</ele>
        <time>2016-02-29T13:45:46Z</time>
      </trkpt>
      <trkpt lat="43.72557" lon="3.50596">
        <ele>366</ele>
        <time>2016-02-29T13:46:46Z</time>
      </trkpt>
      <trkpt lat="43.72542" lon="3.50594">
        <ele>369</ele>
        <time>2016-02-29T13:49:07Z</time>
      </trkpt>
      <trkpt lat="43.72528" lon="3.50596">
        <ele>372</ele>
        <time>2016-02-29T13:50:09Z</time>
      </trkpt>
      <trkpt lat="43.72519" lon="3.50587">
        <ele>372</ele>
        <time>2016-02-29T13:50:46Z</time>
      </trkpt>
      <trkpt lat="43.72515" lon="3.50603">
        <ele>373</ele>
        <time>2016-02-29T13:51:55Z</time>
      </trkpt>
      <trkpt lat="43.72506" lon="3.50612">
        <ele>375</ele>
        <time>2016-02-29T13:53:14Z</time>
      </trkpt>
      <trkpt lat="43.72498" lon="3.50628">
        <ele>381</ele>
        <time>2016-02-29T13:57:48Z</time>
      </trkpt>
      <trkpt lat="43.72487" lon="3.50636">
        <ele>383</ele>
        <time>2016-02-29T13:59:56Z</time>
      </trkpt>
      <trkpt lat="43.72481" lon="3.50661">
        <ele>386</ele>
        <time>2016-02-29T14:00:38Z</time>
      </trkpt>
      <trkpt lat="43.72482" lon="3.5068">
        <ele>392</ele>
        <time>2016-02-29T14:01:19Z</time>
      </trkpt>
      <trkpt lat="43.72478" lon="3.50721">
        <ele>393</ele>
        <time>2016-02-29T14:04:24Z</time>
      </trkpt>
      <trkpt lat="43.72498" lon="3.50737">
        <ele>399</ele>
        <time>2016-02-29T14:06:07Z</time>
      </trkpt>
      <trkpt lat="43.72503" lon="3.50758">
        <ele>399</ele>
        <time>2016-02-29T14:07:15Z</time>
      </trkpt>
      <trkpt lat="43.725" lon="3.50777">
        <ele>399</ele>
        <time>2016-02-29T14:07:58Z</time>
      </trkpt>
      <trkpt lat="43.72487" lon="3.50807">
        <ele>398</ele>
        <time>2016-02-29T14:08:31Z</time>
      </trkpt>
      <trkpt lat="43.72478" lon="3.50867">
        <ele>404</ele>
        <time>2016-02-29T14:13:19Z</time>
      </trkpt>
      <trkpt lat="43.72473" lon="3.50882">
        <ele>405</ele>
        <time>2016-02-29T14:13:53Z</time>
      </trkpt>
      <trkpt lat="43.72472" lon="3.50903">
        <ele>406</ele>
        <time>2016-02-29T14:14:23Z</time>
      </trkpt>
      <trkpt lat="43.72475" lon="3.50943">
        <ele>416</ele>
        <time>2016-02-29T14:17:14Z</time>
      </trkpt>
      <trkpt lat="43.72473" lon="3.50966">
        <ele>418</ele>
        <time>2016-02-29T14:17:46Z</time>
      </trkpt>
      <trkpt lat="43.72465" lon="3.51004">
        <ele>430</ele>
        <time>2016-02-29T14:19:25Z</time>
      </trkpt>
      <trkpt lat="43.7245" lon="3.51055">
        <ele>437</ele>
        <time>2016-02-29T14:26:01Z</time>
      </trkpt>
      <trkpt lat="43.72438" lon="3.51064">
        <ele>440</ele>
        <time>2016-02-29T14:26:21Z</time>
      </trkpt>
      <trkpt lat="43.7243" lon="3.51098">
        <ele>453</ele>
        <time>2016-02-29T14:28:15Z</time>
      </trkpt>
      <trkpt lat="43.72424" lon="3.51111">
        <ele>454</ele>
        <time>2016-02-29T14:29:06Z</time>
      </trkpt>
      <trkpt lat="43.7243" lon="3.51124">
        <ele>455</ele>
        <time>2016-02-29T14:29:55Z</time>
      </trkpt>
      <trkpt lat="43.72431" lon="3.51144">
        <ele>459</ele>
        <time>2016-02-29T14:33:31Z</time>
      </trkpt>
      <trkpt lat="43.72441" lon="3.51157">
        <ele>459</ele>
        <time>2016-02-29T14:35:30Z</time>
      </trkpt>
      <trkpt lat="43.72431" lon="3.51187">
        <ele>469</ele>
        <time>2016-02-29T14:45:11Z</time>
      </trkpt>
      <trkpt lat="43.72437" lon="3.512">
        <ele>470</ele>
        <time>2016-02-29T14:47:24Z</time>
      </trkpt>
      <trkpt lat="43.72431" lon="3.51214">
        <ele>472</ele>
        <time>2016-02-29T14:50:02Z</time>
      </trkpt>
      <trkpt lat="43.72416" lon="3.51281">
        <ele>488</ele>
        <time>2016-02-29T14:53:48Z</time>
      </trkpt>
      <trkpt lat="43.72415" lon="3.51305">
        <ele>491</ele>
        <time>2016-02-29T14:54:39Z</time>
      </trkpt>
      <trkpt lat="43.72408" lon="3.51321">
        <ele>495</ele>
        <time>2016-02-29T14:58:21Z</time>
      </trkpt>
      <trkpt lat="43.72395" lon="3.51332">
        <ele>493</ele>
        <time>2016-02-29T14:58:51Z</time>
      </trkpt>
      <trkpt lat="43.7237" lon="3.51369">
        <ele>495</ele>
        <time>2016-02-29T15:01:57Z</time>
      </trkpt>
      <trkpt lat="43.72356" lon="3.51372">
        <ele>494</ele>
        <time>2016-02-29T15:02:31Z</time>
      </trkpt>
      <trkpt lat="43.72346" lon="3.51382">
        <ele>494</ele>
        <time>2016-02-29T15:03:03Z</time>
      </trkpt>
      <trkpt lat="43.72332" lon="3.51373">
        <ele>482</ele>
        <time>2016-02-29T15:03:54Z</time>
      </trkpt>
      <trkpt lat="43.72314" lon="3.51368">
        <ele>481</ele>
        <time>2016-02-29T15:04:26Z</time>
      </trkpt>
      <trkpt lat="43.72302" lon="3.51373">
        <ele>479</ele>
        <time>2016-02-29T15:04:50Z</time>
      </trkpt>
      <trkpt lat="43.72286" lon="3.51373">
        <ele>477</ele>
        <time>2016-02-29T15:05:25Z</time>
      </trkpt>
      <trkpt lat="43.72264" lon="3.51356">
        <ele>475</ele>
        <time>2016-02-29T15:07:49Z</time>
      </trkpt>
      <trkpt lat="43.72249" lon="3.51339">
        <ele>469</ele>
        <time>2016-02-29T15:08:54Z</time>
      </trkpt>
      <trkpt lat="43.72235" lon="3.51332">
        <ele>467</ele>
        <time>2016-02-29T15:09:07Z</time>
      </trkpt>
      <trkpt lat="43.72205" lon="3.51328">
        <ele>462</ele>
        <time>2016-02-29T15:09:33Z</time>
      </trkpt>
      <trkpt lat="43.72193" lon="3.51321">
        <ele>460</ele>
        <time>2016-02-29T15:09:44Z</time>
      </trkpt>
      <trkpt lat="43.72182" lon="3.51308">
        <ele>460</ele>
        <time>2016-02-29T15:09:56Z</time>
      </trkpt>
      <trkpt lat="43.72175" lon="3.51294">
        <ele>459</ele>
        <time>2016-02-29T15:10:07Z</time>
      </trkpt>
      <trkpt lat="43.72173" lon="3.51274">
        <ele>458</ele>
        <time>2016-02-29T15:10:45Z</time>
      </trkpt>
      <trkpt lat="43.7216" lon="3.5127">
        <ele>451</ele>
        <time>2016-02-29T15:10:58Z</time>
      </trkpt>
      <trkpt lat="43.72118" lon="3.51287">
        <ele>449</ele>
        <time>2016-02-29T15:11:38Z</time>
      </trkpt>
      <trkpt lat="43.72107" lon="3.51296">
        <ele>449</ele>
        <time>2016-02-29T15:11:48Z</time>
      </trkpt>
      <trkpt lat="43.7209" lon="3.51301">
        <ele>448</ele>
        <time>2016-02-29T15:12:03Z</time>
      </trkpt>
      <trkpt lat="43.72069" lon="3.51314">
        <ele>441</ele>
        <time>2016-02-29T15:12:21Z</time>
      </trkpt>
      <trkpt lat="43.72027" lon="3.51327">
        <ele>438</ele>
        <time>2016-02-29T15:13:03Z</time>
      </trkpt>
      <trkpt lat="43.71975" lon="3.51358">
        <ele>428</ele>
        <time>2016-02-29T15:13:49Z</time>
      </trkpt>
      <trkpt lat="43.7195" lon="3.51384">
        <ele>425</ele>
        <time>2016-02-29T15:14:27Z</time>
      </trkpt>
      <trkpt lat="43.71926" lon="3.51398">
        <ele>424</ele>
        <time>2016-02-29T15:14:48Z</time>
      </trkpt>
      <trkpt lat="43.71869" lon="3.51419">
        <ele>420</ele>
        <time>2016-02-29T15:15:35Z</time>
      </trkpt>
      <trkpt lat="43.71831" lon="3.51454">
        <ele>424</ele>
        <time>2016-02-29T15:16:12Z</time>
      </trkpt>
      <trkpt lat="43.71758" lon="3.51504">
        <ele>424</ele>
        <time>2016-02-29T15:17:13Z</time>
      </trkpt>
      <trkpt lat="43.71741" lon="3.51504">
        <ele>426</ele>
        <time>2016-02-29T15:17:29Z</time>
      </trkpt>
      <trkpt lat="43.71727" lon="3.51488">
        <ele>428</ele>
        <time>2016-02-29T15:17:45Z</time>
      </trkpt>
      <trkpt lat="43.717" lon="3.5147">
        <ele>429</ele>
        <time>2016-02-29T15:18:17Z</time>
      </trkpt>
      <trkpt lat="43.71684" lon="3.51408">
        <ele>434</ele>
        <time>2016-02-29T15:19:16Z</time>
      </trkpt>
      <trkpt lat="43.71677" lon="3.51368">
        <ele>434</ele>
        <time>2016-02-29T15:19:43Z</time>
      </trkpt>
      <trkpt lat="43.71658" lon="3.51346">
        <ele>438</ele>
        <time>2016-02-29T15:20:04Z</time>
      </trkpt>
      <trkpt lat="43.71632" lon="3.51332">
        <ele>440</ele>
        <time>2016-02-29T15:20:25Z</time>
      </trkpt>
      <trkpt lat="43.71596" lon="3.51344">
        <ele>440</ele>
        <time>2016-02-29T15:20:55Z</time>
      </trkpt>
      <trkpt lat="43.71586" lon="3.51358">
        <ele>440</ele>
        <time>2016-02-29T15:21:09Z</time>
      </trkpt>
      <trkpt lat="43.71538" lon="3.51344">
        <ele>439</ele>
        <time>2016-02-29T15:22:16Z</time>
      </trkpt>
      <trkpt lat="43.71503" lon="3.51328">
        <ele>439</ele>
        <time>2016-02-29T15:24:29Z</time>
      </trkpt>
      <trkpt lat="43.71422" lon="3.51254">
        <ele>425</ele>
        <time>2016-02-29T15:25:50Z</time>
      </trkpt>
      <trkpt lat="43.71403" lon="3.5123">
        <ele>416</ele>
        <time>2016-02-29T15:26:13Z</time>
      </trkpt>
      <trkpt lat="43.71394" lon="3.51212">
        <ele>414</ele>
        <time>2016-02-29T15:26:26Z</time>
      </trkpt>
      <trkpt lat="43.71356" lon="3.51175">
        <ele>408</ele>
        <time>2016-02-29T15:27:08Z</time>
      </trkpt>
      <trkpt lat="43.71322" lon="3.51172">
        <ele>399</ele>
        <time>2016-02-29T15:28:17Z</time>
      </trkpt>
      <trkpt lat="43.71307" lon="3.51176">
        <ele>397</ele>
        <time>2016-02-29T15:28:42Z</time>
      </trkpt>
      <trkpt lat="43.71293" lon="3.51174">
        <ele>396</ele>
        <time>2016-02-29T15:28:56Z</time>
      </trkpt>
      <trkpt lat="43.71283" lon="3.51164">
        <ele>389</ele>
        <time>2016-02-29T15:29:12Z</time>
      </trkpt>
      <trkpt lat="43.71268" lon="3.51167">
        <ele>392</ele>
        <time>2016-02-29T15:29:42Z</time>
      </trkpt>
      <trkpt lat="43.71255" lon="3.51162">
        <ele>388</ele>
        <time>2016-02-29T15:30:04Z</time>
      </trkpt>
      <trkpt lat="43.71257" lon="3.51136">
        <ele>387</ele>
        <time>2016-02-29T15:30:20Z</time>
      </trkpt>
      <trkpt lat="43.71248" lon="3.51123">
        <ele>377</ele>
        <time>2016-02-29T15:30:33Z</time>
      </trkpt>
      <trkpt lat="43.71215" lon="3.51084">
        <ele>374</ele>
        <time>2016-02-29T15:31:14Z</time>
      </trkpt>
      <trkpt lat="43.71204" lon="3.51077">
        <ele>365</ele>
        <time>2016-02-29T15:31:28Z</time>
      </trkpt>
      <trkpt lat="43.71181" lon="3.51077">
        <ele>364</ele>
        <time>2016-02-29T15:31:51Z</time>
      </trkpt>
      <trkpt lat="43.71169" lon="3.51069">
        <ele>364</ele>
        <time>2016-02-29T15:32:07Z</time>
      </trkpt>
      <trkpt lat="43.71164" lon="3.51054">
        <ele>358</ele>
        <time>2016-02-29T15:32:22Z</time>
      </trkpt>
      <trkpt lat="43.71167" lon="3.51035">
        <ele>361</ele>
        <time>2016-02-29T15:35:01Z</time>
      </trkpt>
      <trkpt lat="43.71153" lon="3.5103">
        <ele>355</ele>
        <time>2016-02-29T15:35:44Z</time>
      </trkpt>
      <trkpt lat="43.71128" lon="3.50983">
        <ele>344</ele>
        <time>2016-02-29T15:36:37Z</time>
      </trkpt>
      <trkpt lat="43.71117" lon="3.50973">
        <ele>343</ele>
        <time>2016-02-29T15:36:52Z</time>
      </trkpt>
      <trkpt lat="43.711" lon="3.5097">
        <ele>343</ele>
        <time>2016-02-29T15:37:21Z</time>
      </trkpt>
      <trkpt lat="43.71097" lon="3.50948">
        <ele>341</ele>
        <time>2016-02-29T15:37:54Z</time>
      </trkpt>
      <trkpt lat="43.71078" lon="3.50925">
        <ele>336</ele>
        <time>2016-02-29T15:38:32Z</time>
      </trkpt>
      <trkpt lat="43.71056" lon="3.50908">
        <ele>330</ele>
        <time>2016-02-29T15:39:08Z</time>
      </trkpt>
      <trkpt lat="43.71056" lon="3.50886">
        <ele>329</ele>
        <time>2016-02-29T15:39:41Z</time>
      </trkpt>
      <trkpt lat="43.71046" lon="3.50854">
        <ele>327</ele>
        <time>2016-02-29T15:40:21Z</time>
      </trkpt>
      <trkpt lat="43.71031" lon="3.50852">
        <ele>326</ele>
        <time>2016-02-29T15:40:37Z</time>
      </trkpt>
      <trkpt lat="43.71011" lon="3.50833">
        <ele>323</ele>
        <time>2016-02-29T15:41:05Z</time>
      </trkpt>
      <trkpt lat="43.71006" lon="3.50816">
        <ele>322</ele>
        <time>2016-02-29T15:48:18Z</time>
      </trkpt>
      <trkpt lat="43.70989" lon="3.50788">
        <ele>319</ele>
        <time>2016-02-29T15:48:49Z</time>
      </trkpt>
      <trkpt lat="43.70983" lon="3.50695">
        <ele>317</ele>
        <time>2016-02-29T15:50:10Z</time>
      </trkpt>
      <trkpt lat="43.7098" lon="3.5076">
        <ele>319</ele>
        <time>2016-02-29T15:51:31Z</time>
      </trkpt>
      <trkpt lat="43.70964" lon="3.50814">
        <ele>317</ele>
        <time>2016-02-29T15:52:06Z</time>
      </trkpt>
      <trkpt lat="43.70955" lon="3.50867">
        <ele>315</ele>
        <time>2016-02-29T15:52:39Z</time>
      </trkpt>
      <trkpt lat="43.70928" lon="3.50856">
        <ele>313</ele>
        <time>2016-02-29T15:53:11Z</time>
      </trkpt>
      <trkpt lat="43.70916" lon="3.50893">
        <ele>302</ele>
        <time>2016-02-29T15:53:41Z</time>
      </trkpt>
      <trkpt lat="43.70895" lon="3.50917">
        <ele>305</ele>
        <time>2016-02-29T15:54:05Z</time>
      </trkpt>
      <trkpt lat="43.70846" lon="3.50951">
        <ele>300</ele>
        <time>2016-02-29T15:54:57Z</time>
      </trkpt>
      <trkpt lat="43.70791" lon="3.50983">
        <ele>286</ele>
        <time>2016-02-29T15:56:24Z</time>
      </trkpt>
      <trkpt lat="43.70778" lon="3.5097">
        <ele>285</ele>
        <time>2016-02-29T15:56:41Z</time>
      </trkpt>
      <trkpt lat="43.70769" lon="3.50948">
        <ele>283</ele>
        <time>2016-02-29T16:00:17Z</time>
      </trkpt>
      <trkpt lat="43.70757" lon="3.50935">
        <ele>281</ele>
        <time>2016-02-29T16:00:30Z</time>
      </trkpt>
      <trkpt lat="43.70748" lon="3.50959">
        <ele>270</ele>
        <time>2016-02-29T16:01:19Z</time>
      </trkpt>
      <trkpt lat="43.70744" lon="3.50981">
        <ele>271</ele>
        <time>2016-02-29T16:01:35Z</time>
      </trkpt>
      <trkpt lat="43.70734" lon="3.50998">
        <ele>272</ele>
        <time>2016-02-29T16:01:51Z</time>
      </trkpt>
      <trkpt lat="43.70722" lon="3.50989">
        <ele>268</ele>
        <time>2016-02-29T16:02:19Z</time>
      </trkpt>
      <trkpt lat="43.70698" lon="3.50947">
        <ele>263</ele>
        <time>2016-02-29T16:04:21Z</time>
      </trkpt>
      <trkpt lat="43.70684" lon="3.50942">
        <ele>261</ele>
        <time>2016-02-29T16:04:44Z</time>
      </trkpt>
      <trkpt lat="43.70666" lon="3.50944">
        <ele>248</ele>
        <time>2016-02-29T16:05:59Z</time>
      </trkpt>
      <trkpt lat="43.70664" lon="3.50966">
        <ele>248</ele>
        <time>2016-02-29T16:07:54Z</time>
      </trkpt>
      <trkpt lat="43.70643" lon="3.50965">
        <ele>247</ele>
        <time>2016-02-29T16:09:24Z</time>
      </trkpt>
      <trkpt lat="43.70636" lon="3.50979">
        <ele>247</ele>
        <time>2016-02-29T16:10:07Z</time>
      </trkpt>
      <trkpt lat="43.70601" lon="3.50999">
        <ele>244</ele>
        <time>2016-02-29T16:11:43Z</time>
      </trkpt>
      <trkpt lat="43.70606" lon="3.51013">
        <ele>246</ele>
        <time>2016-02-29T16:11:56Z</time>
      </trkpt>
      <trkpt lat="43.70606" lon="3.51042">
        <ele>247</ele>
        <time>2016-02-29T16:13:22Z</time>
      </trkpt>
      <trkpt lat="43.70608" lon="3.51061">
        <ele>247</ele>
        <time>2016-02-29T16:13:35Z</time>
      </trkpt>
      <trkpt lat="43.70602" lon="3.5108">
        <ele>245</ele>
        <time>2016-02-29T16:13:53Z</time>
      </trkpt>
      <trkpt lat="43.70591" lon="3.51089">
        <ele>242</ele>
        <time>2016-02-29T16:14:09Z</time>
      </trkpt>
      <trkpt lat="43.70575" lon="3.51092">
        <ele>236</ele>
        <time>2016-02-29T16:14:43Z</time>
      </trkpt>
      <trkpt lat="43.70555" lon="3.51085">
        <ele>230</ele>
        <time>2016-02-29T16:15:07Z</time>
      </trkpt>
      <trkpt lat="43.70553" lon="3.51064">
        <ele>232</ele>
        <time>2016-02-29T16:16:00Z</time>
      </trkpt>
      <trkpt lat="43.70557" lon="3.51008">
        <ele>233</ele>
        <time>2016-02-29T16:16:56Z</time>
      </trkpt>
      <trkpt lat="43.70566" lon="3.50994">
        <ele>233</ele>
        <time>2016-02-29T16:17:10Z</time>
      </trkpt>
      <trkpt lat="43.70563" lon="3.50977">
        <ele>230</ele>
        <time>2016-02-29T16:17:39Z</time>
      </trkpt>
      <trkpt lat="43.70549" lon="3.50984">
        <ele>228</ele>
        <time>2016-02-29T16:17:56Z</time>
      </trkpt>
      <trkpt lat="43.70542" lon="3.50971">
        <ele>226</ele>
        <time>2016-02-29T16:18:14Z</time>
      </trkpt>
      <trkpt lat="43.7051" lon="3.50967">
        <ele>222</ele>
        <time>2016-02-29T16:19:33Z</time>
      </trkpt>
      <trkpt lat="43.70499" lon="3.5096">
        <ele>205</ele>
        <time>2016-02-29T16:20:05Z</time>
      </trkpt>
      <trkpt lat="43.70491" lon="3.50948">
        <ele>204</ele>
        <time>2016-02-29T16:20:39Z</time>
      </trkpt>
      <trkpt lat="43.70476" lon="3.50946">
        <ele>202</ele>
        <time>2016-02-29T16:21:23Z</time>
      </trkpt>
      <trkpt lat="43.70466" lon="3.50935">
        <ele>200</ele>
        <time>2016-02-29T16:22:49Z</time>
      </trkpt>
      <trkpt lat="43.70451" lon="3.50939">
        <ele>196</ele>
        <time>2016-02-29T16:24:02Z</time>
      </trkpt>
      <trkpt lat="43.70442" lon="3.50927">
        <ele>193</ele>
        <time>2016-02-29T16:24:58Z</time>
      </trkpt>
      <trkpt lat="43.70425" lon="3.50922">
        <ele>187</ele>
        <time>2016-02-29T16:25:19Z</time>
      </trkpt>
      <trkpt lat="43.70423" lon="3.50902">
        <ele>185</ele>
        <time>2016-02-29T16:25:35Z</time>
      </trkpt>
      <trkpt lat="43.70425" lon="3.50864">
        <ele>185</ele>
        <time>2016-02-29T16:26:34Z</time>
      </trkpt>
      <trkpt lat="43.70421" lon="3.50842">
        <ele>179</ele>
        <time>2016-02-29T16:26:48Z</time>
      </trkpt>
      <trkpt lat="43.7041" lon="3.50814">
        <ele>170</ele>
        <time>2016-02-29T16:27:09Z</time>
      </trkpt>
      <trkpt lat="43.70402" lon="3.50803">
        <ele>168</ele>
        <time>2016-02-29T16:27:21Z</time>
      </trkpt>
      <trkpt lat="43.70389" lon="3.50794">
        <ele>167</ele>
        <time>2016-02-29T16:27:45Z</time>
      </trkpt>
      <trkpt lat="43.70381" lon="3.5078">
        <ele>166</ele>
        <time>2016-02-29T16:27:59Z</time>
      </trkpt>
      <trkpt lat="43.70368" lon="3.50773">
        <ele>165</ele>
        <time>2016-02-29T16:28:18Z</time>
      </trkpt>
      <trkpt lat="43.70316" lon="3.50774">
        <ele>158</ele>
        <time>2016-02-29T16:29:00Z</time>
      </trkpt>
      <trkpt lat="43.70301" lon="3.50766">
        <ele>157</ele>
        <time>2016-02-29T16:29:13Z</time>
      </trkpt>
      <trkpt lat="43.70251" lon="3.50761">
        <ele>155</ele>
        <time>2016-02-29T16:29:59Z</time>
      </trkpt>
      <trkpt lat="43.70222" lon="3.50751">
        <ele>152</ele>
        <time>2016-02-29T16:30:30Z</time>
      </trkpt>
      <trkpt lat="43.70222" lon="3.50723">
        <ele>151</ele>
        <time>2016-02-29T16:30:47Z</time>
      </trkpt>
      <trkpt lat="43.702" lon="3.50704">
        <ele>150</ele>
        <time>2016-02-29T16:31:11Z</time>
      </trkpt>
      <trkpt lat="43.70134" lon="3.50676">
        <ele>144</ele>
        <time>2016-02-29T16:32:09Z</time>
      </trkpt>
      <trkpt lat="43.70097" lon="3.5065">
        <ele>141</ele>
        <time>2016-02-29T16:32:58Z</time>
      </trkpt>
      <trkpt lat="43.70074" lon="3.50644">
        <ele>137</ele>
        <time>2016-02-29T16:33:18Z</time>
      </trkpt>
      <trkpt lat="43.70049" lon="3.50631">
        <ele>136</ele>
        <time>2016-02-29T16:33:42Z</time>
      </trkpt>
      <trkpt lat="43.70011" lon="3.506">
        <ele>135</ele>
        <time>2016-02-29T16:34:18Z</time>
      </trkpt>
      <trkpt lat="43.69995" lon="3.50592">
        <ele>134</ele>
        <time>2016-02-29T16:34:31Z</time>
      </trkpt>
      <trkpt lat="43.69932" lon="3.50565">
        <ele>137</ele>
        <time>2016-02-29T16:35:23Z</time>
      </trkpt>
      <trkpt lat="43.69898" lon="3.50554">
        <ele>143</ele>
        <time>2016-02-29T16:35:50Z</time>
      </trkpt>
      <trkpt lat="43.69874" lon="3.50554">
        <ele>144</ele>
        <time>2016-02-29T16:36:09Z</time>
      </trkpt>
      <trkpt lat="43.69831" lon="3.50567">
        <ele>149</ele>
        <time>2016-02-29T16:36:44Z</time>
      </trkpt>
      <trkpt lat="43.6981" lon="3.50569">
        <ele>150</ele>
        <time>2016-02-29T16:37:02Z</time>
      </trkpt>
      <trkpt lat="43.69726" lon="3.5054">
        <ele>152</ele>
        <time>2016-02-29T16:38:15Z</time>
      </trkpt>
      <trkpt lat="43.6967" lon="3.50535">
        <ele>153</ele>
        <time>2016-02-29T16:38:58Z</time>
      </trkpt>
      <trkpt lat="43.69649" lon="3.50539">
        <ele>153</ele>
        <time>2016-02-29T16:39:15Z</time>
      </trkpt>
      <trkpt lat="43.69643" lon="3.50571">
        <ele>152</ele>
        <time>2016-02-29T16:39:55Z</time>
      </trkpt>
      <trkpt lat="43.69597" lon="3.50612">
        <ele>151</ele>
        <time>2016-02-29T16:40:37Z</time>
      </trkpt>
      <trkpt lat="43.69598" lon="3.50619">
        <ele>151</ele>
        <time>2016-02-29T16:40:57Z</time>
      </trkpt>
      <trkpt lat="43.69598" lon="3.50617">
        <ele>151</ele>
        <time>2016-02-29T17:31:15Z</time>
      </trkpt>
      <trkpt lat="43.69598" lon="3.50617">
        <ele>151</ele>
        <time>2016-02-29T17:31:16Z</time>
      </trkpt>
    </trkseg>
  </trk>
</gpx>